Terminal Aerodrome Forecast
Issued by NWS Sioux Falls, SD

Home | Current Version | Previous Version | Graphics & Text | Print | Product List | Glossary On
Versions: 1 2 3 4 5 6 7 8 9 10 11 12 13 14
000
FTUS43 KFSD 202321
TAFFSD
TAF
KFSD 202321Z 2100/2124 17019G27KT P6SM SCT050 BKN250
     FM210800 18017G25KT P6SM OVC030
     FM211000 18016G24KT P6SM VCSH OVC015
     FM211400 21012KT P6SM -SHRA VCTS OVC015CB
     FM211600 24012KT P6SM VCSH OVC020
     FM211800 29014KT P6SM BKN035=

USA.gov is the U.S. government's official web portal to all federal, state and local government web resources and services.